ΕΜΥ, Εθνική Μετεωρολογική Υπηρεσία - Δελτία Καιρού, Προγνώσεις

ΑΕΡΟΝΑΥΤΙΛΙΑ

GREEK AIRPORTS CODES

LGTT 260100Z 00000KT 9999 FEW030 13/12 Q1020 RMK SCT080 BKN180=

EUROPEAN AIRPORTS CODES

LFPO 260130Z 19004KT 160V220 CAVOK 06/05 Q1010 NOSIG=